Time;durP1;ratioP1;P1;durP2;ratioP2;P2;SDS_P1;SDS_P2;PMS_P1;PMS_P2;Temp;Humidity;BMP_temperature;BMP_pressure;BME280_temperature;BME280_humidity;BME280_pressure;Samples;Min_cycle;Max_cycle;Signal;HPM_P1;HPM_P2
2023/06/25 00:01:14;;;;;;;6.53;5.90;;;25.30;64.80;;;;;;4002842;29;19951;-60
2023/06/25 00:03:55;;;;;;;6.53;5.93;;;25.30;64.90;;;;;;4014708;29;20080;-60
2023/06/25 00:06:36;;;;;;;7.25;6.47;;;25.20;64.90;;;;;;4017834;29;20082;-60
2023/06/25 00:09:18;;;;;;;9.10;6.85;;;25.20;64.90;;;;;;4018207;29;20060;-61
2023/06/25 00:11:59;;;;;;;9.07;7.32;;;25.20;64.90;;;;;;4017908;29;20061;-60
2023/06/25 00:14:40;;;;;;;11.27;8.52;;;25.20;64.80;;;;;;4018207;29;20056;-60
2023/06/25 00:17:21;;;;;;;9.30;7.78;;;25.20;64.80;;;;;;4005968;29;20064;-60
2023/06/25 00:20:02;;;;;;;8.30;7.50;;;25.20;64.90;;;;;;4006487;29;20126;-60
2023/06/25 00:22:43;;;;;;;10.50;9.50;;;25.20;65.80;;;;;;4017735;29;20056;-60
2023/06/25 00:25:39;;;;;;;11.70;10.05;;;25.20;65.00;;;;;;4017296;29;20558;-60
2023/06/25 00:28:20;;;;;;;11.40;10.27;;;25.20;65.00;;;;;;4002568;29;20524;-62
2023/06/25 00:31:01;;;;;;;11.20;9.75;;;25.20;65.00;;;;;;4005473;29;20807;-62
2023/06/25 00:33:42;;;;;;;11.48;9.98;;;25.10;65.00;;;;;;4018153;29;20508;-61
2023/06/25 00:36:23;;;;;;;12.95;9.98;;;25.10;65.10;;;;;;4006031;29;20068;-59
2023/06/25 00:39:05;;;;;;;11.43;10.32;;;25.10;65.20;;;;;;4006401;29;20076;-56
2023/06/25 00:41:48;;;;;;;11.07;9.77;;;25.10;65.20;;;;;;4006370;29;20073;-56
2023/06/25 00:44:29;;;;;;;14.85;10.50;;;25.10;65.10;;;;;;4006603;29;20056;-57
2023/06/25 00:47:13;;;;;;;10.10;8.82;;;25.10;65.20;;;;;;4005632;29;20097;-56
2023/06/25 00:49:54;;;;;;;10.20;8.80;;;25.00;66.00;;;;;;4017356;29;20053;-56
2023/06/25 00:52:34;;;;;;;9.23;8.32;;;25.00;64.40;;;;;;4017458;29;20056;-57
2023/06/25 00:55:16;;;;;;;9.18;8.30;;;25.10;65.30;;;;;;4006204;29;20416;-57
2023/06/25 00:58:00;;;;;;;10.00;9.00;;;25.00;65.20;;;;;;4015683;29;20056;-55
2023/06/25 01:00:41;;;;;;;9.32;8.50;;;25.00;65.20;;;;;;4005970;29;20454;-57
2023/06/25 01:03:28;;;;;;;10.52;9.48;;;25.00;65.20;;;;;;4006265;29;20061;-56
2023/06/25 01:06:17;;;;;;;9.43;8.52;;;25.00;65.10;;;;;;4005344;29;20137;-55
2023/06/25 01:08:59;;;;;;;10.18;8.52;;;25.00;65.20;;;;;;4017407;29;20060;-56
2023/06/25 01:11:41;;;;;;;19.48;9.15;;;25.00;65.10;;;;;;4006205;29;20207;-55
2023/06/25 01:14:28;;;;;;;10.05;8.88;;;25.00;65.20;;;;;;4005703;29;20064;-57
2023/06/25 01:17:09;;;;;;;9.45;8.43;;;25.00;65.20;;;;;;4016817;29;20065;-56
2023/06/25 01:19:51;;;;;;;11.45;10.35;;;25.00;65.10;;;;;;4016913;29;20405;-57
2023/06/25 01:22:34;;;;;;;11.38;9.82;;;24.90;65.10;;;;;;4005648;29;20056;-57
2023/06/25 01:25:15;;;;;;;14.18;10.68;;;24.90;65.10;;;;;;3990536;29;20077;-58
2023/06/25 01:27:56;;;;;;;12.68;10.85;;;24.90;65.30;;;;;;3990002;29;20065;-58
2023/06/25 01:30:37;;;;;;;12.25;11.00;;;24.90;65.30;;;;;;4001492;29;20060;-57
2023/06/25 01:33:18;;;;;;;;;;;24.90;65.60;;;;;;3990734;29;20141;-57
2023/06/25 01:35:59;;;;;;;11.88;9.95;;;24.90;65.50;;;;;;3995717;29;20064;-58
2023/06/25 01:38:41;;;;;;;11.43;9.77;;;24.80;65.50;;;;;;4001894;29;20186;-57
2023/06/25 01:41:23;;;;;;;12.05;9.32;;;24.80;65.70;;;;;;4001688;29;20114;-58
2023/06/25 01:44:04;;;;;;;13.70;11.05;;;24.80;65.60;;;;;;4012009;29;20065;-56
2023/06/25 01:46:45;;;;;;;12.68;11.25;;;24.80;65.60;;;;;;3990613;29;20060;-57
2023/06/25 01:49:27;;;;;;;11.32;10.13;;;24.80;65.70;;;;;;3990521;29;20060;-57
2023/06/25 01:52:12;;;;;;;13.32;10.55;;;24.80;65.70;;;;;;3990228;29;20097;-57
2023/06/25 01:54:54;;;;;;;11.98;10.45;;;24.80;65.70;;;;;;4004031;29;20732;-57
2023/06/25 01:57:35;;;;;;;12.35;11.15;;;24.80;66.50;;;;;;4016905;29;20222;-56
2023/06/25 02:00:17;;;;;;;11.75;10.63;;;24.80;65.60;;;;;;4005230;29;20068;-57
2023/06/25 02:02:58;;;;;;;12.32;11.02;;;24.70;65.60;;;;;;4016569;29;20405;-57
2023/06/25 02:05:39;;;;;;;11.70;10.57;;;24.80;65.80;;;;;;4016154;29;20053;-58
2023/06/25 02:08:19;;;;;;;12.27;10.63;;;24.80;65.70;;;;;;4005322;29;20281;-58
2023/06/25 02:11:02;;;;;;;12.30;10.88;;;24.80;65.70;;;;;;4005294;29;20063;-58
2023/06/25 02:13:43;;;;;;;12.48;10.90;;;24.80;65.80;;;;;;4016194;29;20060;-58
2023/06/25 02:16:24;;;;;;;;;;;24.70;65.70;;;;;;4016931;29;20064;-58
2023/06/25 02:19:05;;;;;;;12.60;10.88;;;24.70;65.60;;;;;;4005062;29;19995;-58
2023/06/25 02:21:46;;;;;;;14.05;11.80;;;24.70;66.40;;;;;;4004869;29;20057;-58
2023/06/25 02:24:27;;;;;;;12.55;11.13;;;24.70;65.40;;;;;;4004540;29;20056;-58
2023/06/25 02:27:09;;;;;;;13.25;11.02;;;24.70;66.40;;;;;;4004994;29;20048;-59
2023/06/25 02:29:50;;;;;;;12.63;10.98;;;24.60;66.60;;;;;;4016502;29;20565;-58
2023/06/25 02:32:31;;;;;;;12.32;10.55;;;24.60;65.90;;;;;;4016514;29;20064;-58
2023/06/25 02:35:12;;;;;;;12.60;11.27;;;24.60;66.40;;;;;;4016036;29;20513;-58
2023/06/25 02:37:53;;;;;;;;;;;24.60;66.00;;;;;;4005539;29;20673;-58
2023/06/25 02:40:35;;;;;;;12.63;10.43;;;24.60;66.00;;;;;;4019779;29;19931;-59
2023/06/25 02:43:17;;;;;;;14.15;10.63;;;24.60;66.00;;;;;;4019582;29;20061;-57
2023/06/25 02:45:58;;;;;;;16.27;11.73;;;24.60;65.90;;;;;;4018679;29;20064;-59
2023/06/25 02:48:42;;;;;;;11.30;9.70;;;24.50;65.80;;;;;;4007853;29;20056;-58
2023/06/25 02:51:24;;;;;;;13.63;11.02;;;24.60;65.90;;;;;;4019791;29;20576;-58
2023/06/25 02:54:05;;;;;;;;;;;24.60;65.80;;;;;;4008457;29;20056;-59
2023/06/25 02:56:46;;;;;;;13.38;10.75;;;24.50;65.70;;;;;;4014820;29;19983;-59
2023/06/25 02:59:28;;;;;;;13.50;10.57;;;24.50;65.90;;;;;;4019415;29;20568;-59
2023/06/25 03:02:09;;;;;;;13.88;10.75;;;24.50;66.70;;;;;;4015214;29;20465;-59
2023/06/25 03:04:50;;;;;;;11.65;10.43;;;24.50;65.70;;;;;;4018007;29;20186;-58
2023/06/25 03:07:31;;;;;;;;;;;24.50;66.50;;;;;;4019764;29;20047;-59
2023/06/25 03:10:12;;;;;;;13.55;9.95;;;24.50;65.70;;;;;;4018504;29;19935;-58
2023/06/25 03:12:53;;;;;;;12.70;9.88;;;24.40;65.60;;;;;;4018104;29;20067;-60
2023/06/25 03:15:35;;;;;;;;;;;24.50;65.40;;;;;;4019110;29;20069;-59
2023/06/25 03:18:17;;;;;;;14.20;10.70;;;24.40;65.50;;;;;;4002570;29;19980;-60
2023/06/25 03:20:57;;;;;;;12.30;10.20;;;24.40;65.70;;;;;;3992460;29;20053;-60
2023/06/25 03:23:39;;;;;;;16.05;10.73;;;24.40;66.50;;;;;;4004080;29;20081;-59
2023/06/25 03:26:20;;;;;;;13.73;10.82;;;24.40;65.50;;;;;;4013748;29;20090;-61
2023/06/25 03:29:01;;;;;;;12.65;11.07;;;24.40;65.50;;;;;;4004046;29;20056;-61
2023/06/25 03:31:44;;;;;;;14.77;10.88;;;24.40;65.60;;;;;;4013456;29;20057;-60
2023/06/25 03:34:29;;;;;;;11.90;10.10;;;24.40;65.60;;;;;;4005736;29;20186;-59
2023/06/25 03:37:09;;;;;;;12.70;11.00;;;24.40;65.60;;;;;;4003900;29;20093;-61
2023/06/25 03:39:50;;;;;;;14.40;10.60;;;24.40;65.60;;;;;;4003396;29;20488;-60
2023/06/25 03:42:31;;;;;;;13.38;11.23;;;24.30;65.70;;;;;;4002252;29;20057;-59
2023/06/25 03:45:13;;;;;;;15.95;11.05;;;24.40;65.80;;;;;;4017383;29;20056;-60
2023/06/25 03:47:56;;;;;;;14.60;9.90;;;24.30;65.70;;;;;;4016700;29;20063;-61
2023/06/25 03:50:39;;;;;;;13.60;11.35;;;24.30;65.70;;;;;;4005595;29;20504;-60
2023/06/25 03:53:19;;;;;;;12.07;10.32;;;24.30;65.80;;;;;;4017802;29;20141;-60
2023/06/25 03:56:00;;;;;;;;;;;24.30;65.70;;;;;;3999542;29;20427;-61
2023/06/25 03:58:41;;;;;;;13.23;10.60;;;24.30;65.70;;;;;;4009361;29;19931;-61
2023/06/25 04:01:22;;;;;;;;;;;24.30;65.70;;;;;;4007246;29;20763;-61
2023/06/25 04:04:05;;;;;;;14.02;10.00;;;24.30;65.70;;;;;;4006924;29;20447;-61
2023/06/25 04:06:45;;;;;;;13.68;10.80;;;24.30;65.90;;;;;;4006900;29;20413;-61
2023/06/25 04:09:28;;;;;;;15.43;11.60;;;24.30;65.90;;;;;;3991175;29;20056;-61
2023/06/25 04:12:10;;;;;;;;;;;24.30;65.80;;;;;;3992250;29;20080;-61
2023/06/25 04:14:52;;;;;;;12.52;10.13;;;24.30;65.80;;;;;;3991036;29;19941;-61
2023/06/25 04:17:34;;;;;;;14.13;10.50;;;24.20;65.80;;;;;;4012337;29;20222;-61
2023/06/25 04:20:16;;;;;;;16.02;10.88;;;24.20;65.80;;;;;;4002374;29;20057;-60
2023/06/25 04:22:57;;;;;;;15.95;10.85;;;24.20;65.80;;;;;;4032596;29;20079;-60
2023/06/25 04:25:38;;;;;;;;;;;24.20;65.80;;;;;;4013678;29;20053;-60
2023/06/25 04:28:20;;;;;;;;;;;24.20;65.70;;;;;;4007141;29;20019;-60
2023/06/25 04:31:00;;;;;;;13.52;10.15;;;24.20;65.80;;;;;;4006818;29;19931;-60
2023/06/25 04:33:41;;;;;;;15.02;11.45;;;24.20;65.90;;;;;;4006751;29;20520;-61
2023/06/25 04:36:27;;;;;;;17.20;10.38;;;24.20;65.90;;;;;;4017394;29;20190;-62
2023/06/25 04:39:11;;;;;;;13.50;10.43;;;24.20;65.90;;;;;;3991233;29;20052;-61
2023/06/25 04:41:52;;;;;;;13.60;10.82;;;24.20;65.90;;;;;;3991358;29;20065;-62
2023/06/25 04:44:33;;;;;;;14.02;10.65;;;24.20;65.90;;;;;;4002550;29;20630;-61
2023/06/25 04:47:14;;;;;;;;;;;24.20;65.90;;;;;;4002942;29;20061;-61
2023/06/25 04:49:55;;;;;;;12.48;10.32;;;24.30;65.90;;;;;;4017515;29;19931;-62
2023/06/25 04:52:37;;;;;;;;;;;24.30;66.10;;;;;;4006828;29;20060;-61
2023/06/25 04:55:18;;;;;;;17.60;10.55;;;24.30;66.00;;;;;;4017725;29;19931;-63
2023/06/25 04:57:59;;;;;;;15.98;10.48;;;24.30;66.20;;;;;;4002124;29;20065;-61
2023/06/25 05:00:40;;;;;;;17.35;10.70;;;24.30;66.20;;;;;;4015320;29;20417;-61
2023/06/25 05:03:20;;;;;;;13.50;11.02;;;24.30;66.20;;;;;;4016746;29;20140;-62
2023/06/25 05:06:02;;;;;;;15.13;11.73;;;24.30;66.20;;;;;;4017396;29;20049;-61
2023/06/25 05:08:44;;;;;;;16.33;10.40;;;24.30;66.20;;;;;;4015662;29;20060;-61
2023/06/25 05:11:25;;;;;;;14.75;10.38;;;24.40;66.30;;;;;;4017241;29;20060;-62
2023/06/25 05:14:06;;;;;;;16.90;10.85;;;24.40;66.40;;;;;;4017433;29;20129;-62
2023/06/25 05:16:47;;;;;;;15.15;10.13;;;24.40;66.50;;;;;;3997543;29;20061;-62
2023/06/25 05:19:28;;;;;;;11.00;9.70;;;24.40;66.60;;;;;;3990908;29;20057;-61
2023/06/25 05:22:09;;;;;;;12.40;11.07;;;24.40;67.70;;;;;;3990804;29;20066;-62
2023/06/25 05:24:51;;;;;;;13.25;10.07;;;24.50;68.00;;;;;;4001939;29;20065;-61
2023/06/25 05:27:32;;;;;;;13.48;10.38;;;24.60;67.00;;;;;;4013261;29;20057;-60
2023/06/25 05:30:13;;;;;;;14.55;10.73;;;24.70;66.80;;;;;;4017209;29;20591;-60
2023/06/25 05:32:54;;;;;;;13.35;10.88;;;24.70;66.50;;;;;;4017164;29;20076;-62
2023/06/25 05:35:35;;;;;;;18.48;11.60;;;24.80;66.20;;;;;;4016377;29;20064;-60
2023/06/25 05:38:16;;;;;;;13.75;11.00;;;24.90;65.80;;;;;;4017285;29;20071;-59
2023/06/25 05:40:58;;;;;;;;;;;25.00;65.60;;;;;;4017468;29;20060;-60
2023/06/25 05:43:40;;;;;;;11.85;10.00;;;25.10;65.20;;;;;;4016588;29;20374;-60
2023/06/25 05:46:20;;;;;;;14.73;10.57;;;25.20;65.10;;;;;;4004672;29;20077;-55
2023/06/25 05:49:02;;;;;;;11.98;9.88;;;25.30;64.90;;;;;;4015358;29;20052;-60
2023/06/25 05:51:43;;;;;;;14.98;10.55;;;25.30;64.90;;;;;;3991139;29;20053;-60
2023/06/25 05:54:24;;;;;;;15.25;10.38;;;25.30;64.60;;;;;;3992616;29;20051;-60
2023/06/25 05:57:06;;;;;;;12.68;10.60;;;25.30;64.50;;;;;;4008579;29;20515;-60
2023/06/25 05:59:47;;;;;;;13.25;9.82;;;25.30;64.60;;;;;;4012806;29;20413;-60
2023/06/25 06:02:28;;;;;;;14.73;9.52;;;25.30;64.70;;;;;;4016971;29;20067;-60
2023/06/25 06:05:09;;;;;;;10.90;9.15;;;25.30;64.70;;;;;;4016087;29;20872;-60
2023/06/25 06:07:50;;;;;;;15.18;10.30;;;25.30;64.70;;;;;;4029349;29;20154;-60
2023/06/25 06:10:31;;;;;;;11.48;9.05;;;25.30;64.80;;;;;;4014853;29;20129;-60
2023/06/25 06:13:13;;;;;;;10.35;8.98;;;25.30;64.80;;;;;;4000937;29;20508;-60
2023/06/25 06:15:54;;;;;;;10.85;8.80;;;25.40;64.80;;;;;;4013706;29;20057;-60
2023/06/25 06:18:35;;;;;;;9.70;8.63;;;25.40;64.70;;;;;;4006272;29;20527;-60
2023/06/25 06:21:16;;;;;;;8.90;7.65;;;25.40;64.60;;;;;;4031666;29;20132;-60
2023/06/25 06:23:58;;;;;;;10.82;8.50;;;25.50;64.60;;;;;;4018766;29;20064;-60
2023/06/25 06:26:38;;;;;;;9.20;8.20;;;25.50;64.40;;;;;;4007253;29;20049;-59
2023/06/25 06:29:21;;;;;;;;;;;25.60;64.10;;;;;;4019753;29;20077;-59
2023/06/25 06:32:02;;;;;;;8.98;7.80;;;25.60;63.80;;;;;;4016057;29;19938;-60
2023/06/25 06:34:43;;;;;;;9.32;7.78;;;25.70;63.70;;;;;;3998811;29;20512;-59
2023/06/25 06:37:24;;;;;;;11.50;7.32;;;25.70;63.60;;;;;;4000607;29;20064;-60
2023/06/25 06:40:07;;;;;;;8.23;6.95;;;25.80;63.50;;;;;;4008647;29;20052;-60
2023/06/25 06:42:48;;;;;;;10.60;7.10;;;25.80;63.50;;;;;;4001205;29;20182;-59
2023/06/25 06:45:31;;;;;;;8.40;7.18;;;25.90;64.20;;;;;;4012406;29;20083;-60
2023/06/25 06:48:12;;;;;;;9.68;6.88;;;25.90;63.00;;;;;;4016252;29;20052;-59
2023/06/25 06:50:55;;;;;;;8.82;7.95;;;26.00;62.70;;;;;;4001118;29;20562;-59
2023/06/25 06:53:36;;;;;;;;;;;26.00;62.50;;;;;;4003379;29;20076;-59
2023/06/25 06:56:17;;;;;;;8.07;7.38;;;26.10;63.30;;;;;;4023289;29;19935;-60
2023/06/25 06:58:58;;;;;;;7.57;6.90;;;26.10;62.10;;;;;;4031780;29;20056;-60
2023/06/25 07:01:40;;;;;;;;;;;26.20;62.00;;;;;;4012323;29;20065;-60
2023/06/25 07:04:21;;;;;;;9.65;8.75;;;26.20;61.80;;;;;;4001056;29;19946;-60
2023/06/25 07:07:02;;;;;;;9.13;8.32;;;26.30;61.70;;;;;;4008238;29;20385;-60
2023/06/25 07:09:50;;;;;;;10.35;9.13;;;26.30;61.70;;;;;;4002325;29;20057;-55
2023/06/25 07:12:32;;;;;;;9.00;8.20;;;26.30;61.60;;;;;;4000802;29;20056;-58
2023/06/25 07:15:13;;;;;;;11.32;9.35;;;26.40;61.80;;;;;;4002952;29;20052;-58
2023/06/25 07:17:56;;;;;;;10.55;9.55;;;26.40;61.70;;;;;;4014130;29;20508;-58
2023/06/25 07:20:37;;;;;;;10.73;9.27;;;26.50;61.50;;;;;;4015641;29;20068;-58
2023/06/25 07:23:18;;;;;;;;;;;26.50;61.40;;;;;;4001446;29;20866;-59
2023/06/25 07:25:58;;;;;;;10.00;9.00;;;26.50;61.30;;;;;;4002360;29;19980;-57
2023/06/25 07:28:39;;;;;;;10.63;9.52;;;26.50;61.20;;;;;;4002677;29;20521;-58
2023/06/25 07:31:20;;;;;;;9.77;8.77;;;26.60;61.30;;;;;;3981824;29;20060;-59
2023/06/25 07:34:03;;;;;;;11.13;10.02;;;26.60;61.30;;;;;;4003841;29;20056;-58
2023/06/25 07:36:43;;;;;;;12.40;9.38;;;26.50;61.40;;;;;;4003674;29;20078;-58
2023/06/25 07:39:29;;;;;;;10.63;9.52;;;26.60;61.50;;;;;;4003674;29;20083;-60
2023/06/25 07:42:10;;;;;;;15.50;11.55;;;26.60;61.60;;;;;;4003428;29;20057;-58
2023/06/25 07:44:51;;;;;;;11.85;10.63;;;26.60;61.30;;;;;;4012654;29;20405;-58
2023/06/25 07:47:37;;;;;;;12.25;10.73;;;26.60;61.20;;;;;;4018684;29;20416;-58
2023/06/25 07:50:19;;;;;;;13.30;11.65;;;26.60;61.30;;;;;;4018702;29;20053;-58
2023/06/25 07:52:59;;;;;;;12.43;11.30;;;26.60;61.30;;;;;;4016545;29;20182;-58
2023/06/25 07:55:41;;;;;;;12.27;11.18;;;26.60;61.20;;;;;;3992845;29;20057;-58
2023/06/25 07:58:40;;;;;;;13.30;12.00;;;26.60;61.30;;;;;;4003152;29;20092;-58
2023/06/25 08:01:21;;;;;;;13.60;12.00;;;26.60;61.30;;;;;;3991588;29;20061;-60
2023/06/25 08:04:02;;;;;;;13.15;11.82;;;26.60;61.40;;;;;;4003369;29;20058;-58
2023/06/25 08:06:44;;;;;;;12.30;11.18;;;26.60;61.60;;;;;;3991718;29;20052;-58
2023/06/25 08:09:25;;;;;;;13.10;11.70;;;26.60;62.40;;;;;;3991996;29;20202;-59
2023/06/25 08:12:07;;;;;;;11.82;10.73;;;26.60;61.70;;;;;;4003263;29;20053;-58
2023/06/25 08:14:47;;;;;;;;;;;26.60;61.90;;;;;;4003483;29;20066;-58
2023/06/25 08:17:28;;;;;;;11.18;10.15;;;26.60;62.80;;;;;;4002968;29;20312;-58
2023/06/25 08:20:09;;;;;;;12.88;11.55;;;26.60;61.70;;;;;;4002901;29;20061;-58
2023/06/25 08:22:52;;;;;;;12.68;11.50;;;26.60;61.70;;;;;;4002823;29;20057;-58
2023/06/25 08:25:33;;;;;;;12.70;11.18;;;26.60;61.50;;;;;;4002598;29;20527;-58
2023/06/25 08:28:13;;;;;;;12.77;11.45;;;26.60;61.30;;;;;;4002893;29;20052;-58
2023/06/25 08:30:54;;;;;;;10.23;9.25;;;26.70;61.50;;;;;;3991309;29;20080;-58
2023/06/25 08:33:35;;;;;;;12.00;10.77;;;26.70;61.70;;;;;;4002831;29;20581;-58
2023/06/25 08:36:16;;;;;;;12.55;11.35;;;26.70;61.60;;;;;;4002697;29;20084;-58
2023/06/25 08:38:58;;;;;;;10.57;9.68;;;26.70;61.60;;;;;;4013593;29;20141;-58
2023/06/25 08:41:40;;;;;;;11.43;10.25;;;26.70;61.60;;;;;;4017992;29;20265;-58
2023/06/25 08:44:21;;;;;;;13.70;12.30;;;26.80;61.60;;;;;;4015800;29;20227;-58
2023/06/25 08:47:02;;;;;;;12.05;10.68;;;26.80;61.50;;;;;;4005884;29;20186;-58
2023/06/25 08:49:44;;;;;;;11.95;10.68;;;26.80;61.20;;;;;;4017410;29;20519;-58
2023/06/25 08:52:26;;;;;;;12.30;10.90;;;26.80;61.00;;;;;;4014127;29;20126;-58
2023/06/25 08:55:11;;;;;;;;;;;26.90;61.10;;;;;;4002288;29;20070;-58
2023/06/25 08:57:52;;;;;;;11.57;9.20;;;26.90;61.10;;;;;;4002286;29;19931;-58
2023/06/25 09:00:32;;;;;;;11.48;10.43;;;26.90;60.60;;;;;;4002181;29;20075;-58
2023/06/25 09:03:13;;;;;;;12.65;11.35;;;27.00;60.50;;;;;;3992467;29;20197;-58
2023/06/25 09:05:57;;;;;;;9.85;8.48;;;27.00;60.40;;;;;;4002096;29;20588;-58
2023/06/25 09:08:40;;;;;;;9.88;8.23;;;27.00;60.10;;;;;;4002213;29;20065;-58
2023/06/25 09:11:23;;;;;;;8.95;8.25;;;27.00;59.60;;;;;;4002271;29;20145;-58
2023/06/25 09:14:03;;;;;;;10.02;9.02;;;27.10;59.30;;;;;;4002202;29;20061;-58
2023/06/25 09:16:47;;;;;;;7.95;7.15;;;27.10;59.10;;;;;;3990763;29;20061;-58
2023/06/25 09:19:28;;;;;;;9.80;8.77;;;27.10;58.90;;;;;;3987082;29;20134;-58
2023/06/25 09:22:09;;;;;;;8.82;7.88;;;27.10;58.90;;;;;;3996981;29;20825;-58
2023/06/25 09:24:50;;;;;;;9.02;7.97;;;27.20;58.90;;;;;;3987153;29;20058;-58
2023/06/25 09:27:34;;;;;;;10.93;8.50;;;27.20;58.90;;;;;;3987062;29;20074;-58
2023/06/25 09:30:18;;;;;;;9.10;8.20;;;27.20;58.70;;;;;;3987246;29;20565;-58
2023/06/25 09:33:00;;;;;;;7.28;6.40;;;27.30;58.50;;;;;;3995451;29;20057;-58
2023/06/25 09:35:41;;;;;;;7.07;6.47;;;27.30;58.20;;;;;;3990776;29;20081;-58
2023/06/25 09:38:25;;;;;;;6.05;5.45;;;27.30;57.30;;;;;;4001816;29;20106;-58
2023/06/25 09:41:06;;;;;;;5.88;5.25;;;27.40;57.00;;;;;;4001756;29;20056;-58
2023/06/25 09:43:50;;;;;;;7.10;6.40;;;27.40;56.70;;;;;;4001722;29;20056;-59
2023/06/25 09:46:34;;;;;;;8.43;7.53;;;27.40;56.80;;;;;;4000831;29;20517;-59
2023/06/25 09:49:18;;;;;;;7.43;6.38;;;27.40;56.80;;;;;;3986078;29;20399;-58
2023/06/25 09:52:03;;;;;;;8.18;6.85;;;27.50;57.10;;;;;;3975399;29;20191;-58
2023/06/25 09:54:45;;;;;;;10.30;6.97;;;27.50;57.00;;;;;;3986734;29;20053;-58
2023/06/25 09:57:27;;;;;;;9.48;6.03;;;27.50;56.70;;;;;;3986776;29;20065;-58
2023/06/25 10:00:11;;;;;;;7.10;6.30;;;27.60;55.90;;;;;;3986622;29;20061;-59
2023/06/25 10:02:52;;;;;;;7.65;5.82;;;27.60;55.70;;;;;;4014077;29;20453;-58
2023/06/25 10:05:34;;;;;;;6.25;5.57;;;27.60;55.20;;;;;;4001414;29;20065;-58
2023/06/25 10:08:15;;;;;;;6.82;6.22;;;27.60;55.40;;;;;;4001597;29;20076;-58
2023/06/25 10:10:57;;;;;;;5.97;5.38;;;27.70;55.50;;;;;;4001462;29;20558;-58
2023/06/25 10:13:40;;;;;;;5.93;5.45;;;27.70;55.10;;;;;;3990322;29;20053;-58
2023/06/25 10:16:22;;;;;;;6.80;6.07;;;27.70;54.30;;;;;;4007777;29;20056;-58
2023/06/25 10:19:20;;;;;;;8.70;5.57;;;27.70;54.20;;;;;;4016008;29;20048;-58
2023/06/25 10:22:06;;;;;;;5.28;4.80;;;27.80;53.90;;;;;;4004986;29;20389;-58
2023/06/25 10:24:49;;;;;;;4.53;4.22;;;27.80;53.90;;;;;;4016236;29;20104;-58
2023/06/25 10:27:30;;;;;;;6.70;6.03;;;27.80;53.40;;;;;;4016575;29;20049;-58
2023/06/25 10:30:14;;;;;;;5.85;5.35;;;27.90;53.60;;;;;;4004838;29;20065;-58
2023/06/25 10:33:02;;;;;;;6.88;5.40;;;27.90;53.70;;;;;;4016552;29;20057;-58
2023/06/25 10:35:47;;;;;;;5.90;5.40;;;27.90;53.20;;;;;;4016441;29;20064;-58
2023/06/25 10:38:28;;;;;;;6.00;5.45;;;27.90;53.90;;;;;;4014792;29;20508;-58
2023/06/25 10:41:09;;;;;;;6.13;5.57;;;27.90;53.80;;;;;;4016165;29;20175;-58
2023/06/25 10:43:50;;;;;;;5.05;4.65;;;28.00;53.30;;;;;;4016418;29;20141;-58
2023/06/25 10:46:32;;;;;;;8.00;6.30;;;28.00;53.30;;;;;;4016521;29;20185;-58
2023/06/25 10:49:20;;;;;;;5.30;4.80;;;28.00;53.40;;;;;;4016095;29;20386;-57
2023/06/25 10:52:02;;;;;;;5.40;5.00;;;28.00;53.10;;;;;;4016168;29;20060;-57
2023/06/25 10:54:43;;;;;;;6.18;5.68;;;28.10;53.50;;;;;;4000752;29;20057;-57
2023/06/25 10:57:26;;;;;;;;;;;28.10;53.20;;;;;;4001230;29;20088;-57
2023/06/25 11:00:08;;;;;;;5.40;4.90;;;28.10;53.70;;;;;;4002771;29;19931;-57
2023/06/25 11:02:51;;;;;;;5.10;4.45;;;28.10;53.70;;;;;;4003889;29;20064;-58
2023/06/25 11:05:35;;;;;;;5.32;4.35;;;28.10;53.40;;;;;;4003896;29;20069;-57
2023/06/25 11:08:16;;;;;;;5.75;5.13;;;28.10;53.40;;;;;;4004966;29;20064;-58
2023/06/25 11:10:57;;;;;;;6.57;5.82;;;28.10;53.20;;;;;;4019145;29;20064;-58
2023/06/25 11:13:38;;;;;;;6.45;4.72;;;28.10;53.20;;;;;;4007370;29;20129;-58
2023/06/25 11:16:20;;;;;;;7.07;5.20;;;28.20;53.10;;;;;;4019319;29;20072;-58
2023/06/25 11:19:01;;;;;;;5.78;5.28;;;28.20;52.80;;;;;;4019144;29;20052;-57
2023/06/25 11:21:44;;;;;;;5.30;4.90;;;28.20;52.80;;;;;;4016617;29;20401;-58
2023/06/25 11:24:25;;;;;;;4.38;4.07;;;28.20;52.80;;;;;;4009289;29;20082;-57
2023/06/25 11:27:06;;;;;;;4.10;3.80;;;28.30;53.20;;;;;;4018252;29;20053;-59
2023/06/25 11:29:48;;;;;;;4.18;3.88;;;28.30;53.20;;;;;;4018910;29;20480;-59
2023/06/25 11:32:29;;;;;;;4.88;3.40;;;28.30;53.50;;;;;;4006416;29;20053;-59
2023/06/25 11:35:14;;;;;;;3.75;3.55;;;28.30;53.40;;;;;;4018714;29;20420;-62
2023/06/25 11:37:56;;;;;;;3.90;3.70;;;28.30;52.40;;;;;;4007939;29;20121;-59
2023/06/25 11:40:39;;;;;;;4.30;3.97;;;28.30;53.70;;;;;;4018199;29;20068;-59
2023/06/25 11:43:22;;;;;;;3.80;3.50;;;28.30;52.30;;;;;;4017982;29;20064;-58
2023/06/25 11:46:05;;;;;;;3.63;3.42;;;28.30;52.60;;;;;;4006062;29;20053;-62
2023/06/25 11:48:48;;;;;;;3.65;3.45;;;28.30;52.30;;;;;;4018600;29;20060;-59
2023/06/25 11:51:30;;;;;;;3.83;3.53;;;28.40;52.60;;;;;;4018407;29;20060;-59
2023/06/25 11:54:12;;;;;;;3.75;3.45;;;28.40;53.00;;;;;;4007858;29;20056;-59
2023/06/25 11:56:53;;;;;;;3.40;3.17;;;28.40;52.60;;;;;;4018296;29;20053;-58
2023/06/25 11:59:34;;;;;;;3.53;3.33;;;28.40;52.30;;;;;;4002325;29;20443;-59
2023/06/25 12:02:16;;;;;;;3.60;3.35;;;28.40;52.30;;;;;;4008027;29;20227;-59
2023/06/25 12:04:56;;;;;;;4.20;3.80;;;28.40;51.80;;;;;;4009327;29;20222;-59
2023/06/25 12:07:38;;;;;;;3.70;3.40;;;28.40;51.20;;;;;;4016150;29;20072;-59
2023/06/25 12:10:21;;;;;;;4.05;3.63;;;28.50;50.50;;;;;;4017891;29;20425;-59
2023/06/25 12:13:02;;;;;;;3.90;3.60;;;28.50;50.60;;;;;;4006126;29;20060;-59
2023/06/25 12:15:42;;;;;;;5.18;4.22;;;28.50;51.10;;;;;;4006967;29;20527;-59
2023/06/25 12:18:26;;;;;;;4.05;3.75;;;28.60;50.40;;;;;;4019759;29;20060;-59
2023/06/25 12:21:07;;;;;;;3.83;3.53;;;28.60;50.50;;;;;;4026738;29;20080;-59
2023/06/25 12:23:48;;;;;;;4.20;3.75;;;28.60;50.30;;;;;;4024133;29;20453;-59
2023/06/25 12:26:30;;;;;;;;;;;28.60;50.40;;;;;;4018759;29;20061;-57
2023/06/25 12:29:11;;;;;;;3.53;3.30;;;28.70;50.50;;;;;;4018232;29;19931;-59
2023/06/25 12:31:52;;;;;;;4.28;3.88;;;28.70;50.40;;;;;;4018181;29;20137;-59
2023/06/25 12:34:34;;;;;;;4.20;3.92;;;28.70;50.30;;;;;;4017608;29;20049;-59
2023/06/25 12:37:16;;;;;;;4.40;4.10;;;28.70;50.40;;;;;;4017989;29;20527;-59
2023/06/25 12:39:57;;;;;;;4.38;3.67;;;28.70;50.30;;;;;;4006523;29;20052;-59
2023/06/25 12:42:40;;;;;;;4.32;3.85;;;28.70;50.20;;;;;;4017658;29;20059;-59
2023/06/25 12:45:21;;;;;;;4.20;3.80;;;28.70;50.30;;;;;;4016899;29;20061;-59
2023/06/25 12:48:02;;;;;;;4.22;3.85;;;28.70;50.00;;;;;;4017484;29;20529;-59
2023/06/25 12:50:42;;;;;;;;;;;28.80;50.40;;;;;;4017955;29;20057;-59
2023/06/25 12:53:23;;;;;;;4.60;3.72;;;28.80;50.60;;;;;;4005786;29;20030;-58
2023/06/25 12:56:04;;;;;;;3.75;3.47;;;28.80;50.20;;;;;;4005681;29;20059;-58
2023/06/25 12:58:47;;;;;;;4.32;4.03;;;28.80;50.30;;;;;;4005408;29;20061;-59
2023/06/25 13:01:28;;;;;;;4.35;4.05;;;28.80;48.90;;;;;;4005682;29;20056;-59
2023/06/25 13:04:09;;;;;;;3.85;3.40;;;28.90;49.40;;;;;;4017535;29;20136;-59
2023/06/25 13:06:50;;;;;;;4.35;4.03;;;28.80;49.50;;;;;;4017538;29;20064;-59
2023/06/25 13:09:32;;;;;;;4.22;3.90;;;28.90;49.70;;;;;;4017322;29;20056;-58
2023/06/25 13:12:14;;;;;;;3.72;3.47;;;28.90;49.60;;;;;;4017116;29;20512;-58
2023/06/25 13:14:56;;;;;;;;;;;28.90;49.00;;;;;;4017949;29;20211;-58
2023/06/25 13:17:37;;;;;;;4.43;4.13;;;28.90;49.50;;;;;;4017266;29;19935;-58
2023/06/25 13:20:18;;;;;;;4.60;3.75;;;28.90;49.90;;;;;;4016984;29;20117;-58
2023/06/25 13:22:59;;;;;;;;;;;28.90;49.50;;;;;;4016574;29;20059;-58
2023/06/25 13:25:41;;;;;;;;;;;29.00;49.70;;;;;;4017779;29;19931;-58
2023/06/25 13:28:22;;;;;;;4.30;4.00;;;29.00;49.50;;;;;;4017089;29;19931;-59
2023/06/25 13:31:04;;;;;;;;;;;28.90;48.60;;;;;;4017126;29;20072;-59
2023/06/25 13:33:45;;;;;;;4.15;3.85;;;29.00;48.50;;;;;;4017320;29;19931;-59
2023/06/25 13:36:25;;;;;;;;;;;29.00;49.20;;;;;;4017646;29;20056;-59
2023/06/25 13:39:06;;;;;;;4.20;3.90;;;29.00;49.10;;;;;;4017145;29;20398;-58
2023/06/25 13:41:47;;;;;;;4.07;3.75;;;29.00;49.40;;;;;;4016824;29;20122;-59
2023/06/25 13:44:28;;;;;;;4.82;4.43;;;29.00;48.40;;;;;;4015870;29;20088;-58
2023/06/25 13:47:10;;;;;;;;;;;29.00;48.50;;;;;;4017426;29;20412;-58
2023/06/25 13:49:51;;;;;;;4.43;4.13;;;29.10;48.80;;;;;;4005248;29;19931;-58
2023/06/25 13:52:32;;;;;;;4.10;3.80;;;29.10;49.00;;;;;;4016966;29;20197;-59
2023/06/25 13:55:13;;;;;;;8.07;4.70;;;29.10;49.10;;;;;;4016655;29;20104;-58
2023/06/25 13:57:53;;;;;;;;;;;29.10;48.90;;;;;;4017475;29;20056;-58
2023/06/25 14:00:34;;;;;;;;;;;29.10;49.00;;;;;;4016820;29;20074;-59